Terminal Aerodrome Forecast
Issued by NWS Columbia, SC

Home | Current Version | Previous Version | Text Only | Print | Product List | Glossary On
Versions: 1 2 3 4 5 6 7 8 9 10 11 12 13 14 15 16 17 18 19 20 21 22
861
FTUS42 KCAE 301918 AAA
TAFCAE
TAF AMD
KCAE 301918Z 3019/3118 13011KT P6SM VCTS BKN035CB OVC100
      TEMPO 3019/3021 VRB15G30KT 5SM TSRA BR SCT015 BKN025CB OVC045
     FM302200 13008KT P6SM BKN040
     FM310600 17006KT 4SM -SHRA OVC008
     FM311400 24015G22KT P6SM BKN050
     FM311700 24020G30KT P6SM SCT250=

USA.gov is the U.S. government's official web portal to all federal, state and local government web resources and services.